Time;durP1;ratioP1;P1;durP2;ratioP2;P2;SDS_P1;SDS_P2;PMS_P1;PMS_P2;Temp;Humidity;BMP_temperature;BMP_pressure;BME280_temperature;BME280_humidity;BME280_pressure;Samples;Min_cycle;Max_cycle;Signal;HPM_P1;HPM_P2
2024/02/22 00:00:58;;;;;;;8.20;2.45;;;15.40;50.80;;;;;;6305921;28;20044;-78
2024/02/22 00:03:59;;;;;;;4.35;1.60;;;15.50;50.30;;;;;;6309285;28;20380;-78
2024/02/22 00:07:02;;;;;;;9.35;2.72;;;15.60;49.70;;;;;;6310536;28;20020;-76
2024/02/22 00:10:06;;;;;;;3.22;1.90;;;15.70;49.40;;;;;;6310400;28;20084;-77
2024/02/22 00:13:07;;;;;;;4.00;2.03;;;15.80;49.00;;;;;;6301811;28;20025;-79
2024/02/22 00:16:08;;;;;;;4.22;2.42;;;15.80;48.50;;;;;;6311016;28;20028;-78
2024/02/22 00:19:10;;;;;;;6.65;1.90;;;15.90;48.40;;;;;;6309255;28;20035;-76
2024/02/22 00:22:10;;;;;;;4.75;1.88;;;15.90;48.40;;;;;;6297885;28;20143;-76
2024/02/22 00:25:20;;;;;;;5.13;2.10;;;15.90;48.40;;;;;;6301998;28;20434;-77
2024/02/22 00:28:22;;;;;;;7.85;2.22;;;15.90;48.80;;;;;;6309250;28;20106;-77
2024/02/22 00:31:23;;;;;;;9.80;1.98;;;15.80;49.30;;;;;;6278514;28;20025;-76
2024/02/22 00:34:24;;;;;;;4.13;2.08;;;15.70;49.70;;;;;;6303584;28;20059;-77
2024/02/22 00:37:25;;;;;;;10.25;2.22;;;15.60;50.10;;;;;;6275396;28;20096;-77
2024/02/22 00:40:27;;;;;;;4.97;1.73;;;15.60;50.30;;;;;;6305149;28;20377;-77
2024/02/22 00:43:30;;;;;;;6.93;1.60;;;15.60;50.20;;;;;;6310143;28;20031;-77
2024/02/22 00:46:31;;;;;;;5.07;1.67;;;15.60;50.10;;;;;;6293621;28;20032;-77
2024/02/22 00:49:32;;;;;;;9.02;2.22;;;15.60;50.00;;;;;;6308794;28;20039;-77
2024/02/22 00:52:33;;;;;;;4.78;1.98;;;15.60;50.00;;;;;;6307975;28;20025;-75
2024/02/22 00:55:36;;;;;;;4.47;1.45;;;15.60;50.00;;;;;;6301098;28;20445;-75
2024/02/22 00:58:37;;;;;;;1.67;1.20;;;15.70;49.90;;;;;;6282593;28;20028;-77
2024/02/22 01:01:38;;;;;;;2.83;1.42;;;15.70;49.80;;;;;;6296674;28;20024;-78
2024/02/22 01:04:39;;;;;;;1.75;1.25;;;15.80;50.20;;;;;;6306736;28;20205;-76
2024/02/22 01:07:40;;;;;;;2.92;1.10;;;15.80;49.90;;;;;;6300975;28;20030;-76
2024/02/22 01:10:41;;;;;;;1.00;0.90;;;15.80;49.80;;;;;;6309248;28;20433;-77
2024/02/22 01:13:41;;;;;;;7.20;2.05;;;15.90;49.70;;;;;;6302404;28;20024;-75
2024/02/22 01:16:47;;;;;;;4.90;2.20;;;15.90;49.80;;;;;;6307714;28;20024;-76
2024/02/22 01:19:48;;;;;;;4.85;2.15;;;15.90;50.50;;;;;;6308184;28;20020;-77
2024/02/22 01:22:49;;;;;;;7.25;2.47;;;15.90;51.00;;;;;;6299297;28;20020;-78
2024/02/22 01:25:50;;;;;;;3.90;2.08;;;15.80;51.90;;;;;;6302134;28;20450;-77
2024/02/22 01:28:53;;;;;;;3.63;1.58;;;15.70;52.10;;;;;;6309418;28;20448;-77
2024/02/22 01:31:54;;;;;;;3.17;1.55;;;15.70;52.00;;;;;;6308937;28;20024;-78
2024/02/22 01:34:56;;;;;;;2.47;1.50;;;15.60;51.90;;;;;;6291503;28;20039;-77
2024/02/22 01:37:57;;;;;;;5.88;1.92;;;15.60;51.90;;;;;;6298939;28;20020;-77
2024/02/22 01:40:57;;;;;;;6.90;1.95;;;15.60;52.10;;;;;;6304675;28;20124;-78
2024/02/22 01:43:58;;;;;;;3.63;1.88;;;15.60;52.30;;;;;;6290809;28;20081;-78
2024/02/22 01:47:00;;;;;;;4.85;1.98;;;15.50;52.50;;;;;;6287032;28;20344;-79
2024/02/22 01:50:01;;;;;;;4.00;1.40;;;15.50;53.10;;;;;;6290365;28;20104;-78
2024/02/22 01:53:03;;;;;;;1.83;1.27;;;15.50;53.30;;;;;;6285128;28;20028;-77
2024/02/22 01:56:06;;;;;;;4.07;1.52;;;15.40;53.30;;;;;;6307973;28;20028;-77
2024/02/22 01:59:08;;;;;;;1.83;1.23;;;15.40;53.30;;;;;;6288163;28;20094;-78
2024/02/22 02:02:10;;;;;;;12.23;1.42;;;15.40;53.30;;;;;;6307521;28;20114;-78
2024/02/22 02:05:11;;;;;;;3.13;1.40;;;15.40;53.40;;;;;;6305783;28;20035;-78
2024/02/22 02:08:19;;;;;;;1.50;1.20;;;15.40;53.30;;;;;;6282196;28;20016;-77
2024/02/22 02:11:22;;;;;;;2.70;1.30;;;15.40;53.20;;;;;;6294156;28;20028;-77
2024/02/22 02:14:23;;;;;;;3.08;1.45;;;15.40;53.20;;;;;;6303128;28;20047;-78
2024/02/22 02:17:28;;;;;;;2.53;1.10;;;15.40;53.40;;;;;;6303447;28;20027;-78
2024/02/22 02:20:35;;;;;;;1.83;0.90;;;15.30;53.40;;;;;;6306214;28;20346;-78
2024/02/22 02:24:05;;;;;;;1.27;0.90;;;15.30;53.60;;;;;;6302976;28;20039;-78
2024/02/22 02:27:07;;;;;;;1.88;1.02;;;15.20;53.70;;;;;;6304985;28;20105;-78
2024/02/22 02:30:08;;;;;;;1.92;0.88;;;15.20;54.00;;;;;;6298578;28;20028;-77
2024/02/22 02:33:09;;;;;;;2.00;1.23;;;15.10;54.20;;;;;;6281450;28;20062;-78
2024/02/22 02:36:10;;;;;;;1.50;0.70;;;15.10;54.40;;;;;;6290558;28;20384;-77
2024/02/22 02:39:12;;;;;;;1.85;1.20;;;15.00;54.60;;;;;;6305533;28;20508;-77
2024/02/22 02:42:15;;;;;;;1.08;0.88;;;15.00;54.80;;;;;;6286021;28;20110;-76
2024/02/22 02:45:17;;;;;;;1.55;1.10;;;15.00;54.90;;;;;;6308316;28;20028;-78
2024/02/22 02:48:19;;;;;;;2.45;0.77;;;15.00;55.00;;;;;;6290349;28;20031;-78
2024/02/22 02:51:20;;;;;;;0.77;0.68;;;15.00;55.20;;;;;;6304276;28;20024;-77
2024/02/22 02:54:22;;;;;;;1.50;0.73;;;15.10;55.30;;;;;;6286144;28;20416;-76
2024/02/22 02:57:24;;;;;;;1.25;0.95;;;14.90;55.20;;;;;;6296551;28;20032;-78
2024/02/22 03:00:25;;;;;;;7.25;0.88;;;15.00;55.20;;;;;;6286247;28;20020;-78
2024/02/22 03:03:26;;;;;;;2.88;1.05;;;15.00;55.40;;;;;;6304810;28;20077;-77
2024/02/22 03:06:27;;;;;;;2.22;1.00;;;15.00;55.40;;;;;;6300387;28;20581;-78
2024/02/22 03:09:31;;;;;;;1.95;0.75;;;15.10;55.60;;;;;;6303710;28;20333;-77
2024/02/22 03:12:32;;;;;;;3.00;1.08;;;15.00;55.70;;;;;;6300122;28;20028;-77
2024/02/22 03:15:38;;;;;;;1.48;0.90;;;15.00;55.70;;;;;;6304850;28;20112;-77
2024/02/22 03:18:40;;;;;;;1.35;0.68;;;15.00;55.80;;;;;;6285303;28;20020;-78
2024/02/22 03:21:40;;;;;;;3.80;1.00;;;15.00;55.90;;;;;;6305960;28;20020;-78
2024/02/22 03:24:43;;;;;;;1.42;0.73;;;15.00;56.00;;;;;;6306646;28;20024;-78
2024/02/22 03:27:44;;;;;;;2.60;1.00;;;15.00;56.20;;;;;;6307241;28;20107;-78
2024/02/22 03:30:45;;;;;;;1.02;0.80;;;15.00;56.30;;;;;;6310889;28;20072;-77
2024/02/22 03:33:47;;;;;;;7.63;1.20;;;15.00;56.60;;;;;;6291172;28;20088;-77
2024/02/22 03:36:48;;;;;;;2.13;1.02;;;15.00;56.70;;;;;;6308555;28;20038;-78
2024/02/22 03:39:49;;;;;;;1.23;0.90;;;15.00;56.60;;;;;;6301667;28;20482;-79
2024/02/22 03:42:52;;;;;;;1.02;0.60;;;14.90;56.60;;;;;;6305233;28;20145;-79
2024/02/22 03:45:54;;;;;;;1.33;0.60;;;14.90;56.50;;;;;;6304293;28;20096;-78
2024/02/22 03:48:57;;;;;;;1.17;0.63;;;14.90;56.60;;;;;;6307077;28;20020;-77
2024/02/22 03:51:58;;;;;;;2.30;1.10;;;14.80;56.60;;;;;;6309727;28;20040;-77
2024/02/22 03:55:00;;;;;;;0.73;0.70;;;14.80;56.70;;;;;;6308742;28;20503;-78
2024/02/22 03:58:00;;;;;;;2.60;0.90;;;14.80;56.70;;;;;;6291912;28;20043;-78
2024/02/22 04:01:35;;;;;;;0.98;0.80;;;14.80;56.80;;;;;;6308279;28;20337;-77
2024/02/22 04:04:36;;;;;;;1.00;0.55;;;14.80;56.90;;;;;;6306860;28;20431;-77
2024/02/22 04:07:38;;;;;;;1.63;0.70;;;14.70;57.00;;;;;;6308662;28;20040;-77
2024/02/22 04:10:39;;;;;;;1.05;0.73;;;14.70;57.10;;;;;;6286519;28;20111;-78
2024/02/22 04:13:41;;;;;;;1.15;0.60;;;14.70;57.40;;;;;;6308831;28;20062;-78
2024/02/22 04:16:42;;;;;;;0.68;0.50;;;14.60;57.60;;;;;;6300802;28;20026;-77
2024/02/22 04:19:44;;;;;;;1.60;0.80;;;14.50;57.70;;;;;;6282549;28;20020;-77
2024/02/22 04:22:48;;;;;;;0.90;0.57;;;14.50;57.80;;;;;;6310248;28;20054;-78
2024/02/22 04:25:49;;;;;;;0.55;0.52;;;14.50;57.90;;;;;;6295764;28;20127;-78
2024/02/22 04:28:50;;;;;;;4.25;0.70;;;14.50;57.90;;;;;;6302176;28;20036;-78
2024/02/22 04:31:51;;;;;;;1.27;0.85;;;14.50;58.00;;;;;;6285279;28;20480;-76
2024/02/22 04:34:52;;;;;;;1.98;0.75;;;14.50;58.10;;;;;;6306375;28;20020;-77
2024/02/22 04:37:54;;;;;;;1.25;0.90;;;14.50;58.10;;;;;;6305349;28;20070;-77
2024/02/22 04:40:56;;;;;;;0.82;0.70;;;14.50;58.20;;;;;;6307735;28;20383;-77
2024/02/22 04:44:04;;;;;;;0.93;0.80;;;14.50;58.30;;;;;;6309341;28;20504;-78
2024/02/22 04:47:08;;;;;;;1.55;0.60;;;14.40;58.40;;;;;;6308947;28;20086;-78
2024/02/22 04:50:11;;;;;;;1.17;0.70;;;14.40;58.60;;;;;;6299264;28;20016;-78
2024/02/22 04:53:13;;;;;;;1.10;0.75;;;14.40;58.80;;;;;;6290287;28;20024;-77
2024/02/22 04:56:13;;;;;;;0.70;0.70;;;14.30;58.90;;;;;;6306959;28;20031;-77
2024/02/22 04:59:15;;;;;;;1.75;0.80;;;14.30;59.00;;;;;;6296423;28;20020;-78
2024/02/22 05:02:16;;;;;;;3.95;1.10;;;14.30;59.20;;;;;;6289540;28;20043;-79
2024/02/22 05:05:18;;;;;;;0.73;0.70;;;14.30;59.30;;;;;;6307877;28;20024;-77
2024/02/22 05:08:19;;;;;;;1.27;0.70;;;14.30;59.40;;;;;;6303242;28;20016;-78
2024/02/22 05:11:20;;;;;;;1.45;0.80;;;14.30;59.50;;;;;;6308839;28;20127;-78
2024/02/22 05:14:21;;;;;;;1.55;0.75;;;14.20;59.50;;;;;;6289890;28;20034;-78
2024/02/22 05:17:22;;;;;;;4.22;0.82;;;14.20;59.60;;;;;;6301834;28;20016;-78
2024/02/22 05:20:22;;;;;;;1.02;0.50;;;14.20;59.80;;;;;;6287782;28;20481;-78
2024/02/22 05:23:24;;;;;;;1.55;0.70;;;14.20;59.90;;;;;;6306002;28;20024;-78
2024/02/22 05:26:25;;;;;;;1.85;0.60;;;14.10;60.00;;;;;;6309181;28;20024;-76
2024/02/22 05:29:26;;;;;;;7.70;0.55;;;14.10;60.20;;;;;;6289905;28;20038;-77
2024/02/22 05:32:28;;;;;;;0.85;0.50;;;14.10;60.00;;;;;;6296477;28;20036;-79
2024/02/22 05:35:30;;;;;;;0.47;0.47;;;14.10;60.00;;;;;;6304860;28;20012;-77
2024/02/22 05:38:31;;;;;;;1.65;0.70;;;14.10;59.90;;;;;;6301372;28;20038;-77
2024/02/22 05:42:22;;;;;;;1.65;0.52;;;14.10;59.80;;;;;;6283754;28;20028;-77
2024/02/22 05:45:48;;;;;;;1.02;0.60;;;14.10;59.80;;;;;;6307097;28;20077;-76
2024/02/22 05:48:50;;;;;;;2.95;0.60;;;14.10;59.70;;;;;;6302466;28;20473;-77
2024/02/22 05:51:50;;;;;;;2.15;0.73;;;14.10;59.70;;;;;;6297831;28;20119;-77
2024/02/22 05:54:51;;;;;;;0.75;0.63;;;14.10;59.60;;;;;;6302318;28;20065;-76
2024/02/22 05:57:53;;;;;;;1.50;0.70;;;14.10;59.70;;;;;;6303282;28;20420;-77
2024/02/22 06:00:54;;;;;;;0.82;0.70;;;14.20;59.60;;;;;;6307911;28;20027;-77
2024/02/22 06:03:55;;;;;;;1.42;0.70;;;14.20;59.70;;;;;;6307519;28;20095;-77
2024/02/22 06:06:56;;;;;;;1.27;0.70;;;14.20;59.70;;;;;;6299035;28;20406;-77
2024/02/22 06:09:57;;;;;;;2.05;0.82;;;14.20;59.80;;;;;;6297089;28;20149;-76
2024/02/22 06:12:57;;;;;;;0.88;0.80;;;14.10;59.90;;;;;;6294741;28;20433;-76
2024/02/22 06:16:02;;;;;;;3.33;0.90;;;14.10;59.90;;;;;;6304597;28;20021;-77
2024/02/22 06:19:03;;;;;;;1.05;0.73;;;14.10;60.00;;;;;;6287645;28;20060;-77
2024/02/22 06:22:05;;;;;;;1.73;0.68;;;14.10;60.10;;;;;;6300874;28;20158;-79
2024/02/22 06:25:08;;;;;;;0.88;0.73;;;14.10;60.10;;;;;;6303411;28;20081;-76
2024/02/22 06:28:09;;;;;;;0.50;0.43;;;14.10;60.10;;;;;;6286235;28;20020;-77
2024/02/22 06:31:10;;;;;;;1.27;0.88;;;14.10;60.10;;;;;;6303378;28;20501;-77
2024/02/22 06:34:12;;;;;;;0.95;0.82;;;14.10;60.10;;;;;;6284603;28;20552;-78
2024/02/22 06:37:13;;;;;;;0.50;0.47;;;14.10;60.10;;;;;;6287561;28;20053;-78
2024/02/22 06:40:14;;;;;;;1.63;0.60;;;14.10;60.10;;;;;;6287347;28;20115;-77
2024/02/22 06:43:16;;;;;;;1.17;0.63;;;14.10;60.00;;;;;;6285776;28;20032;-79
2024/02/22 06:46:18;;;;;;;2.35;0.70;;;14.10;60.00;;;;;;6283148;28;20209;-77
2024/02/22 06:49:19;;;;;;;1.17;0.57;;;14.10;60.10;;;;;;6305215;28;20504;-80
2024/02/22 06:52:20;;;;;;;2.05;0.50;;;14.10;60.10;;;;;;6298020;28;20055;-77
2024/02/22 06:55:24;;;;;;;0.68;0.50;;;14.10;60.00;;;;;;6305590;28;20050;-77
2024/02/22 06:58:25;;;;;;;1.40;0.57;;;14.10;60.00;;;;;;6303289;28;20023;-79
2024/02/22 07:01:28;;;;;;;0.88;0.73;;;14.10;60.00;;;;;;6305267;28;20016;-77
2024/02/22 07:04:30;;;;;;;1.38;0.77;;;14.20;60.00;;;;;;6304649;28;20080;-75
2024/02/22 07:07:31;;;;;;;1.55;0.82;;;14.20;60.00;;;;;;6301037;28;20027;-79
2024/02/22 07:10:31;;;;;;;1.77;1.00;;;14.20;60.00;;;;;;6295260;28;20066;-78
2024/02/22 07:13:33;;;;;;;0.80;0.60;;;14.20;60.10;;;;;;6287227;28;20035;-78
2024/02/22 07:16:35;;;;;;;0.40;0.40;;;14.20;60.10;;;;;;6300840;28;20028;-78
2024/02/22 07:19:36;;;;;;;1.40;0.52;;;14.20;60.00;;;;;;6299084;28;20047;-78
2024/02/22 07:22:39;;;;;;;1.60;0.68;;;14.20;60.00;;;;;;6302104;28;20032;-79
2024/02/22 07:25:40;;;;;;;0.90;0.85;;;14.20;60.00;;;;;;6305528;28;20054;-79
2024/02/22 07:28:41;;;;;;;1.17;0.82;;;14.20;60.20;;;;;;6306951;28;20057;-78
2024/02/22 07:31:42;;;;;;;0.55;0.50;;;14.20;60.30;;;;;;6295811;28;20028;-78
2024/02/22 07:34:45;;;;;;;1.27;0.85;;;14.20;60.30;;;;;;6285073;28;20016;-79
2024/02/22 07:37:46;;;;;;;2.22;0.65;;;14.40;60.60;;;;;;6284282;28;20141;-78
2024/02/22 07:40:47;;;;;;;4.97;1.05;;;14.20;60.40;;;;;;6293108;28;20021;-79
2024/02/22 07:43:49;;;;;;;2.05;0.98;;;14.30;60.40;;;;;;6289639;28;20464;-79
2024/02/22 07:46:52;;;;;;;0.80;0.80;;;14.20;60.20;;;;;;6299385;28;20100;-79
2024/02/22 07:49:54;;;;;;;3.03;0.73;;;14.30;61.20;;;;;;6277205;28;20040;-79
2024/02/22 07:52:55;;;;;;;1.92;0.98;;;14.30;60.50;;;;;;6277149;28;20483;-79
2024/02/22 07:55:59;;;;;;;0.82;0.75;;;14.20;60.40;;;;;;6298123;28;20059;-79
2024/02/22 07:59:00;;;;;;;2.28;0.70;;;14.20;60.50;;;;;;6304895;28;20024;-79
2024/02/22 08:02:01;;;;;;;1.35;0.77;;;14.20;60.70;;;;;;6288492;28;20104;-79
2024/02/22 08:05:03;;;;;;;0.47;0.45;;;14.30;60.70;;;;;;6287543;28;20020;-78
2024/02/22 08:08:04;;;;;;;1.17;0.95;;;14.30;60.70;;;;;;6306744;28;20348;-77
2024/02/22 08:11:09;;;;;;;5.85;0.95;;;14.20;60.70;;;;;;6281040;28;20029;-77
2024/02/22 08:14:10;;;;;;;1.15;0.85;;;14.20;61.10;;;;;;6303826;28;20059;-79
2024/02/22 08:17:11;;;;;;;1.77;0.75;;;14.20;61.20;;;;;;6291660;28;20401;-80
2024/02/22 08:20:13;;;;;;;0.75;0.60;;;14.20;61.30;;;;;;6305202;28;20019;-79
2024/02/22 08:23:14;;;;;;;0.77;0.65;;;14.20;60.90;;;;;;6307168;28;20372;-77
2024/02/22 08:26:17;;;;;;;0.47;0.43;;;14.20;60.90;;;;;;6310155;28;20582;-78
2024/02/22 08:29:18;;;;;;;2.28;0.82;;;14.20;60.90;;;;;;6306546;28;20028;-78
2024/02/22 08:32:19;;;;;;;0.80;0.68;;;14.30;60.80;;;;;;6308181;28;20040;-78
2024/02/22 08:35:20;;;;;;;2.10;1.10;;;14.30;60.90;;;;;;6308897;28;20075;-76
2024/02/22 08:38:21;;;;;;;0.98;0.60;;;14.30;61.00;;;;;;6309489;28;20341;-77
2024/02/22 08:41:24;;;;;;;1.23;0.90;;;14.30;61.00;;;;;;6296984;28;20016;-77
2024/02/22 08:44:26;;;;;;;1.83;0.70;;;14.30;61.00;;;;;;6300924;28;20020;-77
2024/02/22 08:47:27;;;;;;;1.95;0.80;;;14.30;61.00;;;;;;6290249;28;20459;-79
2024/02/22 08:50:29;;;;;;;1.05;0.70;;;14.30;61.00;;;;;;6305355;28;20031;-80
2024/02/22 08:53:31;;;;;;;1.85;0.80;;;14.30;61.20;;;;;;6305606;28;20038;-80
2024/02/22 08:56:33;;;;;;;1.10;0.63;;;14.30;61.20;;;;;;6307834;28;20020;-80
2024/02/22 08:59:36;;;;;;;1.73;0.93;;;14.30;61.30;;;;;;6290533;28;20101;-80
2024/02/22 09:02:39;;;;;;;1.23;0.85;;;14.30;61.40;;;;;;6291214;28;20115;-80
2024/02/22 09:05:41;;;;;;;1.15;0.80;;;14.30;61.40;;;;;;6308029;28;20064;-79
2024/02/22 09:08:43;;;;;;;0.90;0.63;;;14.40;61.50;;;;;;6290252;28;20058;-80
2024/02/22 09:11:48;;;;;;;2.78;0.95;;;14.40;61.50;;;;;;6301285;28;20169;-80
2024/02/22 09:14:50;;;;;;;1.05;0.85;;;14.30;61.50;;;;;;6290801;28;20495;-79
2024/02/22 09:17:51;;;;;;;14.65;1.20;;;14.30;61.70;;;;;;6307103;28;20505;-80
2024/02/22 09:20:52;;;;;;;2.33;0.88;;;14.30;61.70;;;;;;6297406;28;20020;-79
2024/02/22 09:23:53;;;;;;;1.38;0.73;;;14.30;61.70;;;;;;6291291;28;20488;-79
2024/02/22 09:26:55;;;;;;;0.50;0.50;;;14.30;61.60;;;;;;6292375;28;20181;-80
2024/02/22 09:29:58;;;;;;;0.93;0.60;;;14.40;61.40;;;;;;6283459;28;20089;-81
2024/02/22 09:32:59;;;;;;;4.88;1.02;;;14.40;61.10;;;;;;6299925;28;20028;-80
2024/02/22 09:36:02;;;;;;;3.60;0.65;;;14.40;61.10;;;;;;6301529;28;20020;-79
2024/02/22 09:39:04;;;;;;;4.20;0.95;;;14.40;60.80;;;;;;6305223;28;20507;-78
2024/02/22 09:42:06;;;;;;;1.10;0.77;;;14.50;60.70;;;;;;6305906;28;20032;-78
2024/02/22 09:45:07;;;;;;;6.80;1.27;;;14.50;60.50;;;;;;6294265;28;20024;-81
2024/02/22 09:48:09;;;;;;;3.20;0.98;;;14.60;60.20;;;;;;6285085;28;20027;-80
2024/02/22 09:51:12;;;;;;;5.45;2.17;;;14.60;60.10;;;;;;6284074;28;20123;-79
2024/02/22 09:54:15;;;;;;;3.17;1.73;;;14.70;60.00;;;;;;6304146;28;20032;-80
2024/02/22 09:57:17;;;;;;;2.55;0.70;;;14.70;60.00;;;;;;6301306;28;20043;-81
2024/02/22 10:00:18;;;;;;;1.40;0.80;;;14.70;60.00;;;;;;6303742;28;20031;-79
2024/02/22 10:03:37;;;;;;;0.60;0.55;;;14.70;59.90;;;;;;6303940;28;20114;-80
2024/02/22 10:06:39;;;;;;;1.75;1.13;;;14.70;60.00;;;;;;6284242;28;20024;-81
2024/02/22 10:09:44;;;;;;;1.30;0.80;;;14.70;60.10;;;;;;6303776;28;20088;-83
2024/02/22 10:12:47;;;;;;;1.27;0.50;;;14.80;60.20;;;;;;6303059;28;20043;-80
2024/02/22 10:15:48;;;;;;;1.00;0.60;;;14.70;60.10;;;;;;6308923;28;20460;-79
2024/02/22 10:18:51;;;;;;;1.85;0.73;;;14.70;60.00;;;;;;6288230;28;20028;-79
2024/02/22 10:21:56;;;;;;;1.40;0.88;;;14.80;60.10;;;;;;6304676;28;20032;-79
2024/02/22 10:25:24;;;;;;;0.60;0.57;;;14.80;60.00;;;;;;6303210;28;20028;-80
2024/02/22 10:28:26;;;;;;;0.98;0.60;;;14.80;60.00;;;;;;6301721;28;20027;-80
2024/02/22 10:31:29;;;;;;;1.13;0.75;;;14.80;60.00;;;;;;6297897;28;20035;-80
2024/02/22 10:34:39;;;;;;;2.40;0.90;;;14.80;60.00;;;;;;6284092;28;20491;-80
2024/02/22 10:37:42;;;;;;;3.17;0.98;;;14.80;60.00;;;;;;6276785;28;20051;-79
2024/02/22 10:40:44;;;;;;;2.80;0.90;;;14.80;60.00;;;;;;6299876;28;20093;-79
2024/02/22 10:43:48;;;;;;;1.33;0.82;;;14.80;60.00;;;;;;6304798;28;20024;-78
2024/02/22 10:46:51;;;;;;;5.30;1.63;;;14.80;60.10;;;;;;6303049;28;20020;-78
2024/02/22 10:49:59;;;;;;;1.25;1.05;;;14.80;60.20;;;;;;6301893;28;20085;-79
2024/02/22 10:53:03;;;;;;;9.40;3.78;;;14.80;60.30;;;;;;6280722;28;20489;-78
2024/02/22 10:56:06;;;;;;;20.58;7.30;;;14.80;60.30;;;;;;6289514;28;20027;-80
2024/02/22 10:59:13;;;;;;;1.88;1.25;;;14.80;60.40;;;;;;6305071;28;20476;-79
2024/02/22 11:02:16;;;;;;;3.63;1.40;;;14.80;60.30;;;;;;6301132;28;20561;-78
2024/02/22 11:05:18;;;;;;;7.93;2.55;;;14.80;60.10;;;;;;6306020;28;20024;-79
2024/02/22 11:08:22;;;;;;;11.25;2.47;;;14.90;60.00;;;;;;6332472;27;20032;-79
2024/02/22 11:11:29;;;;;;;10.98;2.88;;;14.90;59.70;;;;;;6302973;28;20016;-79
2024/02/22 11:14:37;;;;;;;1.33;1.10;;;15.00;59.60;;;;;;6288540;28;20704;-79
2024/02/22 11:17:51;;;;;;;6.93;1.35;;;15.10;59.40;;;;;;6271900;28;20441;-81
2024/02/22 11:20:53;;;;;;;2.08;1.17;;;15.10;59.10;;;;;;6302746;28;20024;-79
2024/02/22 11:24:07;;;;;;;10.50;2.55;;;15.10;58.70;;;;;;6303375;28;20081;-79
2024/02/22 11:27:18;;;;;;;5.47;2.58;;;15.20;58.40;;;;;;6305478;28;20020;-79
2024/02/22 11:30:20;;;;;;;7.03;2.05;;;15.30;58.10;;;;;;6305736;28;20027;-78
2024/02/22 11:33:22;;;;;;;3.03;1.10;;;15.30;58.10;;;;;;6297261;28;20039;-80
2024/02/22 11:36:28;;;;;;;1.17;0.80;;;15.30;57.90;;;;;;6301559;28;20550;-78
2024/02/22 11:39:29;;;;;;;1.77;0.88;;;15.40;57.80;;;;;;6299725;28;20596;-78
2024/02/22 11:42:30;;;;;;;3.22;1.27;;;15.40;57.60;;;;;;6304827;28;20130;-79
2024/02/22 11:45:38;;;;;;;4.80;1.50;;;15.50;57.50;;;;;;6291057;28;20101;-79
2024/02/22 11:48:40;;;;;;;2.83;1.50;;;15.50;57.00;;;;;;6307898;28;20472;-80
2024/02/22 11:51:45;;;;;;;3.22;0.82;;;15.50;56.70;;;;;;6308652;28;20043;-78
2024/02/22 11:54:51;;;;;;;3.35;0.90;;;15.60;56.60;;;;;;6285310;28;20066;-80
2024/02/22 11:57:55;;;;;;;5.85;1.63;;;15.60;56.10;;;;;;6290619;28;20046;-79
2024/02/22 12:00:56;;;;;;;4.60;2.58;;;15.70;55.90;;;;;;6292617;28;20115;-80
2024/02/22 12:03:58;;;;;;;10.93;4.57;;;15.70;55.80;;;;;;6308618;28;20032;-81
2024/02/22 12:07:01;;;;;;;6.55;2.85;;;15.70;55.70;;;;;;6311812;28;20054;-80
2024/02/22 12:10:03;;;;;;;4.20;1.40;;;15.80;55.50;;;;;;6290361;28;20024;-80
2024/02/22 12:13:05;;;;;;;1.65;0.80;;;15.80;55.20;;;;;;6303313;28;20054;-79
2024/02/22 12:16:11;;;;;;;6.80;2.17;;;15.90;54.70;;;;;;6299014;28;20050;-78
2024/02/22 12:19:19;;;;;;;4.28;1.63;;;16.00;54.30;;;;;;6308116;28;20630;-78
2024/02/22 12:22:22;;;;;;;5.43;2.22;;;16.00;53.80;;;;;;6272881;28;20199;-81
2024/02/22 12:25:23;;;;;;;3.80;0.75;;;16.00;53.40;;;;;;6311932;28;20096;-80
2024/02/22 12:28:28;;;;;;;2.83;1.40;;;16.10;52.80;;;;;;6302177;28;20066;-79
2024/02/22 12:31:29;;;;;;;0.47;0.45;;;16.20;52.90;;;;;;6306212;28;20027;-80
2024/02/22 12:34:31;;;;;;;2.80;1.00;;;16.30;52.80;;;;;;6292357;28;20024;-79
2024/02/22 12:37:34;;;;;;;4.95;1.73;;;16.30;52.00;;;;;;6307323;28;20093;-79
2024/02/22 12:40:44;;;;;;;4.70;1.92;;;16.40;51.80;;;;;;6307807;28;20020;-79
2024/02/22 12:43:47;;;;;;;7.10;3.08;;;16.50;51.90;;;;;;6310921;28;20020;-79
2024/02/22 12:46:48;;;;;;;7.07;3.30;;;16.50;51.30;;;;;;6292554;28;20035;-81
2024/02/22 12:49:51;;;;;;;4.75;2.05;;;16.50;51.50;;;;;;6308478;28;20085;-80
2024/02/22 12:52:52;;;;;;;13.18;3.42;;;16.60;51.80;;;;;;6325341;28;20718;-80
2024/02/22 12:55:55;;;;;;;2.20;1.00;;;16.50;51.80;;;;;;6305678;28;20242;-80
2024/02/22 12:58:56;;;;;;;6.88;2.30;;;16.50;51.90;;;;;;6305960;28;20072;-80
2024/02/22 13:01:57;;;;;;;3.97;2.03;;;16.50;52.00;;;;;;6291737;28;20122;-79
2024/02/22 13:05:00;;;;;;;3.17;0.98;;;16.50;51.90;;;;;;6307557;28;20020;-81
2024/02/22 13:08:01;;;;;;;5.93;1.13;;;16.50;51.80;;;;;;6306580;28;20019;-80
2024/02/22 13:11:03;;;;;;;7.30;1.10;;;16.50;51.60;;;;;;6307806;28;20088;-80
2024/02/22 13:14:05;;;;;;;2.83;1.00;;;16.60;51.50;;;;;;6287867;28;20040;-80
2024/02/22 13:17:08;;;;;;;3.00;0.80;;;16.60;50.90;;;;;;6287372;28;20078;-81
2024/02/22 13:20:14;;;;;;;0.52;0.52;;;16.60;50.50;;;;;;6304918;28;20102;-79
2024/02/22 13:23:17;;;;;;;4.68;1.55;;;16.60;50.60;;;;;;6320052;28;20024;-80
2024/02/22 13:26:22;;;;;;;1.25;0.90;;;16.70;50.40;;;;;;6304564;28;20092;-80
2024/02/22 13:29:23;;;;;;;0.82;0.63;;;16.70;50.70;;;;;;6306557;28;20080;-79
2024/02/22 13:32:25;;;;;;;3.28;0.85;;;16.70;50.90;;;;;;6303111;28;20028;-82
2024/02/22 13:35:28;;;;;;;1.08;0.77;;;16.60;50.90;;;;;;6287217;28;20508;-80
2024/02/22 13:38:28;;;;;;;3.88;1.10;;;16.60;50.90;;;;;;6304884;28;20184;-81
2024/02/22 13:41:34;;;;;;;2.97;1.05;;;16.60;51.10;;;;;;6297603;28;20020;-79
2024/02/22 13:44:34;;;;;;;2.35;0.90;;;16.70;51.60;;;;;;6305926;28;20040;-79
2024/02/22 13:47:35;;;;;;;0.95;0.60;;;16.40;52.00;;;;;;6304718;28;20588;-79
2024/02/22 13:50:40;;;;;;;1.52;0.70;;;16.40;52.00;;;;;;6286323;28;20035;-80
2024/02/22 13:53:41;;;;;;;1.90;0.90;;;16.40;50.90;;;;;;6305973;28;20060;-80
2024/02/22 13:56:43;;;;;;;2.92;1.33;;;16.50;51.40;;;;;;6288153;28;20115;-80
2024/02/22 13:59:44;;;;;;;3.60;0.80;;;16.50;51.10;;;;;;6307728;28;20076;-80
2024/02/22 14:02:46;;;;;;;0.85;0.60;;;16.50;51.40;;;;;;6307577;28;20024;-80
2024/02/22 14:05:47;;;;;;;1.63;0.82;;;16.50;51.30;;;;;;6291253;28;20361;-79
2024/02/22 14:08:48;;;;;;;2.58;1.20;;;16.50;51.10;;;;;;6305641;28;20390;-81
2024/02/22 14:11:50;;;;;;;3.67;0.93;;;16.50;51.70;;;;;;6304588;28;20143;-80
2024/02/22 14:14:51;;;;;;;5.43;2.47;;;16.40;51.90;;;;;;6294274;28;20050;-78
2024/02/22 14:17:53;;;;;;;2.45;1.00;;;16.40;52.30;;;;;;6305110;28;20021;-80
2024/02/22 14:20:54;;;;;;;1.75;1.10;;;16.30;52.40;;;;;;6304974;28;20226;-80
2024/02/22 14:23:56;;;;;;;2.20;0.90;;;16.30;52.40;;;;;;6281879;28;20836;-80
2024/02/22 14:26:57;;;;;;;1.88;0.93;;;16.30;52.10;;;;;;6301399;28;20017;-79
2024/02/22 14:29:59;;;;;;;1.20;0.70;;;16.40;52.00;;;;;;6304861;28;20040;-80
2024/02/22 14:33:03;;;;;;;4.72;1.50;;;16.40;51.50;;;;;;6298478;28;20044;-78
2024/02/22 14:36:04;;;;;;;2.50;1.00;;;16.50;51.30;;;;;;6301758;28;20440;-79
2024/02/22 14:39:09;;;;;;;11.20;3.05;;;16.50;52.00;;;;;;6289299;28;20455;-79
2024/02/22 14:42:16;;;;;;;4.95;1.73;;;16.50;52.40;;;;;;6306221;28;20211;-78
2024/02/22 14:45:18;;;;;;;1.83;1.05;;;16.40;52.10;;;;;;6305238;28;20089;-78
2024/02/22 14:48:21;;;;;;;0.80;0.65;;;16.50;52.10;;;;;;6304646;28;20439;-79
2024/02/22 14:51:22;;;;;;;1.15;0.70;;;16.50;51.00;;;;;;6305284;28;20020;-80
2024/02/22 14:54:23;;;;;;;0.68;0.55;;;16.70;49.90;;;;;;6296515;28;20043;-79
2024/02/22 14:57:24;;;;;;;1.23;0.60;;;16.80;48.90;;;;;;6286265;28;20075;-79
2024/02/22 15:00:27;;;;;;;0.50;0.40;;;17.00;48.40;;;;;;6289224;28;20020;-80
2024/02/22 15:03:30;;;;;;;1.55;0.82;;;17.20;48.30;;;;;;6299468;28;20372;-79
2024/02/22 15:06:31;;;;;;;1.42;0.47;;;17.30;47.90;;;;;;6306654;28;20460;-79
2024/02/22 15:09:32;;;;;;;1.75;0.65;;;17.40;47.50;;;;;;6288442;28;20108;-78
2024/02/22 15:12:34;;;;;;;0.68;0.50;;;17.50;47.10;;;;;;6307196;28;20035;-79
2024/02/22 15:15:35;;;;;;;1.52;0.70;;;17.50;47.10;;;;;;6296468;28;20027;-79
2024/02/22 15:18:36;;;;;;;0.25;0.25;;;17.60;47.30;;;;;;6280584;28;20492;-79
2024/02/22 15:21:38;;;;;;;1.20;0.50;;;17.60;47.10;;;;;;6302806;28;20405;-79
2024/02/22 15:24:39;;;;;;;1.20;0.45;;;17.60;47.00;;;;;;6297891;28;20020;-79
2024/02/22 15:27:42;;;;;;;0.85;0.32;;;17.70;46.90;;;;;;6299148;28;20031;-79
2024/02/22 15:30:46;;;;;;;0.40;0.40;;;17.70;46.30;;;;;;6304099;28;20020;-77
2024/02/22 15:33:47;;;;;;;0.38;0.38;;;17.80;45.90;;;;;;6300692;28;20565;-78
2024/02/22 15:36:48;;;;;;;0.60;0.60;;;17.80;45.90;;;;;;6304205;28;20020;-76
2024/02/22 15:39:51;;;;;;;0.80;0.50;;;18.00;45.90;;;;;;6301377;28;20043;-80
2024/02/22 15:42:52;;;;;;;0.43;0.40;;;17.90;45.70;;;;;;6298800;28;20488;-79
2024/02/22 15:45:53;;;;;;;0.55;0.40;;;18.00;45.70;;;;;;6302970;28;20135;-76
2024/02/22 15:48:56;;;;;;;1.80;0.43;;;18.00;45.60;;;;;;6301359;28;20065;-78